Time;durP1;ratioP1;P1;durP2;ratioP2;P2;SDS_P1;SDS_P2;PMS_P1;PMS_P2;Temp;Humidity;BMP_temperature;BMP_pressure;BME280_temperature;BME280_humidity;BME280_pressure;Samples;Min_cycle;Max_cycle;Signal;HPM_P1;HPM_P2
2024/03/07 00:01:04;;;;;;;;;;;;;;;;;;;;;
2024/03/07 00:03:59;;;;;;;;;16.50;13.25;;;;;10.92;77.93;101042.59;146619;611;46020;-71
2024/03/07 00:07:08;;;;;;;;;16.00;11.25;;;;;10.88;77.41;101043.25;146611;728;47013;-72
2024/03/07 00:10:07;;;;;;;;;12.50;11.50;;;;;10.87;77.61;101052.69;146615;571;46010;-74
2024/03/07 00:13:03;;;;;;;;;13.00;11.50;;;;;10.89;78.11;101051.09;146607;604;46910;-75
2024/03/07 00:15:59;;;;;;;;;15.50;14.50;;;;;10.87;77.77;101044.91;146614;599;46010;-75
2024/03/07 00:19:05;;;;;;;;;13.75;13.50;;;;;10.80;76.70;101048.88;146610;587;46016;-72
2024/03/07 00:22:01;;;;;;;;;12.25;9.50;;;;;10.79;77.44;101049.69;146618;677;46021;-73
2024/03/07 00:25:00;;;;;;;;;12.00;10.75;;;;;10.77;77.57;101047.81;146619;629;46016;-73
2024/03/07 00:28:02;;;;;;;;;9.75;9.75;;;;;10.70;78.90;101030.13;146616;606;46020;-73
2024/03/07 00:31:01;;;;;;;;;9.00;9.00;;;;;10.70;77.72;101036.22;146611;640;47014;-73
2024/03/07 00:34:19;;;;;;;;;9.75;9.75;;;;;9.68;77.01;100848.22;146623;608;46010;-71
2024/03/07 00:37:32;;;;;;;;;11.75;9.25;;;;;10.66;77.44;101010.03;146615;621;46013;-70
2024/03/07 00:40:29;;;;;;;;;9.75;8.25;;;;;10.64;77.82;101025.50;146620;595;46020;-75
2024/03/07 00:43:25;;;;;;;;;9.00;9.00;;;;;10.64;77.59;101026.38;146617;566;47012;-73
2024/03/07 00:46:19;;;;;;;;;8.75;7.25;;;;;10.68;77.43;101021.38;146620;656;47021;-76
2024/03/07 00:49:18;;;;;;;;;10.00;8.25;;;;;10.69;77.88;101013.69;146617;727;46016;-71
2024/03/07 00:52:19;;;;;;;;;8.75;7.25;;;;;10.71;77.09;101008.56;146620;608;47010;-71
2024/03/07 00:55:19;;;;;;;;;8.75;8.75;;;;;10.71;77.18;101008.56;146616;600;48012;-69
2024/03/07 00:58:12;;;;;;;;;7.25;6.00;;;;;10.70;77.01;101012.87;146617;611;46020;-71
2024/03/07 01:01:17;;;;;;;;;6.75;6.75;;;;;10.69;76.17;101005.03;146617;579;46911;-73
2024/03/07 01:04:13;;;;;;;;;8.50;8.25;;;;;10.69;77.01;101005.03;146623;579;47010;-70
2024/03/07 01:07:27;;;;;;;;;6.00;6.00;;;;;10.69;76.61;101005.03;146617;607;47014;-74
2024/03/07 01:10:24;;;;;;;;;9.00;8.75;;;;;10.67;76.83;100996.25;146620;591;46020;-71
2024/03/07 01:13:22;;;;;;;;;6.75;5.50;;;;;10.62;77.03;100991.72;146620;639;45915;-70
2024/03/07 01:16:15;;;;;;;;;9.00;7.25;;;;;10.57;76.62;100981.91;146621;606;46020;-71
2024/03/07 01:19:14;;;;;;;;;7.50;7.00;;;;;10.54;77.84;100986.91;146616;586;47016;-70
2024/03/07 01:22:11;;;;;;;;;8.00;8.00;;;;;10.52;77.21;100991.09;146623;581;46010;-70
2024/03/07 01:25:27;;;;;;;;;12.00;11.00;;;;;10.49;76.26;100997.00;146620;586;46012;-71
2024/03/07 01:28:23;;;;;;;;;10.25;9.75;;;;;10.56;76.67;101001.75;146614;632;46024;-72
2024/03/07 01:31:18;;;;;;;;;8.50;7.00;;;;;10.63;76.66;101001.28;146618;583;47012;-73
2024/03/07 01:34:14;;;;;;;;;9.25;7.75;;;;;10.70;76.34;101004.22;146619;664;46020;-72
2024/03/07 01:37:24;;;;;;;;;8.50;7.25;;;;;10.75;75.96;101007.97;146616;585;46017;-73
2024/03/07 01:40:32;;;;;;;;;13.00;10.75;;;;;10.72;75.85;101008.69;146620;591;46020;-73
2024/03/07 01:43:25;;;;;;;;;22.50;16.50;;;;;10.63;75.76;100996.09;146612;573;46012;-69
2024/03/07 01:46:25;;;;;;;;;11.50;10.25;;;;;10.61;75.51;100999.41;146617;575;45020;-68
2024/03/07 01:49:24;;;;;;;;;10.00;9.25;;;;;10.59;75.77;100996.75;146613;573;46016;-68
2024/03/07 01:52:27;;;;;;;;;11.25;9.25;;;;;10.58;75.45;100994.94;146623;570;46020;-69
2024/03/07 01:55:21;;;;;;;;;8.50;7.25;;;;;10.53;75.51;100985.09;146618;591;47012;-69
2024/03/07 01:58:21;;;;;;;;;6.50;6.00;;;;;10.50;75.35;100978.06;146624;570;47010;-69
2024/03/07 02:01:25;;;;;;;;;14.75;12.00;;;;;10.49;75.40;100973.66;146616;606;45914;-70
2024/03/07 02:04:19;;;;;;;;;10.75;10.75;;;;;10.52;75.67;100975.56;146614;577;46020;-69
2024/03/07 02:07:22;;;;;;;;;15.00;10.25;;;;;10.55;75.73;100978.31;146612;702;47016;-69
2024/03/07 02:10:17;;;;;;;;;12.50;8.25;;;;;10.61;76.04;100984.72;146617;584;46010;-69
2024/03/07 02:13:09;;;;;;;;;10.00;10.00;;;;;10.66;76.21;100992.78;146617;565;46013;-69
2024/03/07 02:16:07;;;;;;;;;9.00;7.75;;;;;10.72;75.74;100998.31;146615;586;47010;-69
2024/03/07 02:19:10;;;;;;;;;9.50;7.00;;;;;10.73;74.83;100999.19;146618;606;46014;-70
2024/03/07 02:22:02;;;;;;;;;8.00;7.00;;;;;10.64;74.86;101000.44;146625;613;46011;-69
2024/03/07 02:24:57;;;;;;;;;8.00;7.50;;;;;10.53;74.98;101001.56;146618;633;46016;-69
2024/03/07 02:27:58;;;;;;;;;10.50;8.25;;;;;10.40;75.08;100996.50;146621;610;46020;-70
2024/03/07 02:30:54;;;;;;;;;10.75;8.50;;;;;10.34;75.14;100998.75;146617;580;46912;-70
2024/03/07 02:33:50;;;;;;;;;12.75;10.75;;;;;10.24;75.30;101001.59;146621;572;46010;-71
2024/03/07 02:36:51;;;;;;;;;13.50;12.00;;;;;10.18;75.03;101003.00;146611;573;46017;-72
2024/03/07 02:40:05;;;;;;;;;9.50;9.50;;;;;10.12;75.06;100987.16;146614;563;47012;-71
2024/03/07 02:42:57;;;;;;;;;11.75;11.00;;;;;10.12;75.89;100991.41;146618;696;46017;-71
2024/03/07 02:45:57;;;;;;;;;10.75;9.00;;;;;10.08;75.96;100982.56;146613;589;46020;-70
2024/03/07 02:49:05;;;;;;;;;9.50;8.00;;;;;10.08;75.46;100992.94;146615;615;47913;-70
2024/03/07 02:52:07;;;;;;;;;9.25;8.50;;;;;10.12;76.75;100989.75;146620;564;47010;-71
2024/03/07 02:55:04;;;;;;;;;9.75;9.25;;;;;10.18;76.77;100990.06;146613;616;47014;-71
2024/03/07 02:58:01;;;;;;;;;6.50;6.50;;;;;10.24;76.47;100986.03;146619;584;47021;-71
2024/03/07 03:01:05;;;;;;;;;7.75;5.75;;;;;10.24;76.01;100980.84;146616;576;46016;-71
2024/03/07 03:04:01;;;;;;;;;8.75;7.00;;;;;10.27;76.41;100988.84;146620;617;47010;-72
2024/03/07 03:06:53;;;;;;;;;9.00;7.75;;;;;10.28;76.90;100991.53;146619;566;46012;-74
2024/03/07 03:09:49;;;;;;;;;7.50;6.50;;;;;10.31;76.59;101004.66;146623;578;45020;-73
2024/03/07 03:12:47;;;;;;;;;12.25;9.00;;;;;10.33;76.38;100997.84;146617;590;46016;-74
2024/03/07 03:15:50;;;;;;;;;8.75;8.00;;;;;10.33;76.27;101000.44;146618;599;47020;-75
2024/03/07 03:18:55;;;;;;;;;8.50;8.50;;;;;10.31;75.87;100999.47;146613;602;47017;-74
2024/03/07 03:21:58;;;;;;;;;9.00;8.00;;;;;10.28;75.69;100993.22;146620;573;46020;-75
2024/03/07 03:24:50;;;;;;;;;11.00;9.75;;;;;10.20;75.73;100999.63;146619;665;46016;-74
2024/03/07 03:27:54;;;;;;;;;11.50;11.00;;;;;10.09;75.99;100996.41;146621;640;45021;-70
2024/03/07 03:30:50;;;;;;;;;31.00;27.25;;;;;10.00;75.77;101002.00;146608;644;47012;-70
2024/03/07 03:33:57;;;;;;;;;13.00;9.00;;;;;9.93;76.31;101005.00;146615;585;46011;-69
2024/03/07 03:36:49;;;;;;;;;10.50;9.50;;;;;9.85;76.24;101012.34;146619;589;46012;-70
2024/03/07 03:39:42;;;;;;;;;32.50;30.25;;;;;9.83;76.91;101015.63;146622;624;45020;-73
2024/03/07 03:42:36;;;;;;;;;12.50;9.75;;;;;9.82;76.68;101021.62;146613;620;46012;-74
2024/03/07 03:45:29;;;;;;;;;11.00;10.50;;;;;9.73;76.51;101010.72;146622;596;46012;-72
2024/03/07 03:48:22;;;;;;;;;11.00;7.75;;;;;9.65;76.62;101010.25;146613;717;46012;-72
2024/03/07 03:51:15;;;;;;;;;10.00;8.00;;;;;9.63;76.91;101017.94;146618;606;46020;-71
2024/03/07 03:54:07;;;;;;;;;31.75;30.50;;;;;9.63;77.22;101017.94;146614;687;46014;-72
2024/03/07 03:57:05;;;;;;;;;16.75;15.75;;;;;9.65;76.90;101031.88;146616;651;46010;-72
2024/03/07 04:00:26;;;;;;;;;12.00;10.25;;;;;9.59;76.97;101033.19;146611;577;46910;-72
2024/03/07 04:03:32;;;;;;;;;9.50;9.00;;;;;9.49;76.62;101024.88;146610;603;47011;-72
2024/03/07 04:06:13;;;;;;;;;17.00;13.50;;;;;9.45;79.68;101028.09;146703;569;45051;-71
2024/03/07 04:09:12;;;;;;;;;10.75;10.75;;;;;9.41;79.13;101020.94;146614;579;47014;-70
2024/03/07 04:12:12;;;;;;;;;13.25;10.25;;;;;9.29;78.53;101019.31;146619;594;46020;-71
2024/03/07 04:15:08;;;;;;;;;9.25;9.25;;;;;9.15;78.86;101021.94;146610;564;48017;-68
2024/03/07 04:18:07;;;;;;;;;8.00;8.00;;;;;9.14;78.41;101022.75;146622;619;46020;-68
2024/03/07 04:21:00;;;;;;;;;9.25;9.25;;;;;9.16;78.60;101034.09;146621;637;46012;-69
2024/03/07 04:23:53;;;;;;;;;19.00;17.50;;;;;9.13;78.70;101035.59;146621;594;46020;-70
2024/03/07 04:27:01;;;;;;;;;8.75;8.75;;;;;9.12;77.98;101036.38;146616;599;46012;-69
2024/03/07 04:29:57;;;;;;;;;11.25;8.00;;;;;9.08;79.24;101030.13;146622;643;45021;-69
2024/03/07 04:32:51;;;;;;;;;9.00;7.50;;;;;9.07;80.06;101032.63;146616;655;46016;-69
2024/03/07 04:35:52;;;;;;;;;8.75;8.00;;;;;9.05;79.83;101024.75;146623;579;47011;-70
2024/03/07 04:38:56;;;;;;;;;10.00;9.50;;;;;9.07;79.27;101020.59;146617;632;46914;-71
2024/03/07 04:41:52;;;;;;;;;11.25;10.25;;;;;9.09;79.92;101012.91;146621;612;46010;-71
2024/03/07 04:44:47;;;;;;;;;9.25;7.50;;;;;9.15;79.77;101011.59;146614;564;46016;-71
2024/03/07 04:47:53;;;;;;;;;7.25;5.75;;;;;9.19;79.28;101005.81;146621;563;46020;-70
2024/03/07 04:51:15;;;;;;;;;7.50;7.25;;;;;9.20;79.49;101001.53;146618;599;46017;-70
2024/03/07 04:54:12;;;;;;;;;8.00;7.00;;;;;9.17;78.72;101011.69;146622;722;46020;-70
2024/03/07 04:57:09;;;;;;;;;7.00;7.00;;;;;9.20;78.92;101017.06;146615;607;46016;-68
2024/03/07 05:00:19;;;;;;;;;13.50;12.25;;;;;9.21;79.45;101001.59;146622;739;47010;-67
2024/03/07 05:03:28;;;;;;;;;14.25;13.00;;;;;9.30;79.07;101008.16;146613;632;47012;-67
2024/03/07 05:06:28;;;;;;;;;23.75;18.00;;;;;9.33;78.29;101014.41;146613;617;46021;-67
2024/03/07 05:09:38;;;;;;;;;;;;;;;;;;;;;
2024/03/07 05:12:31;;;;;;;;;48.00;39.50;;;;;9.41;78.82;101012.28;146610;627;47012;-70
2024/03/07 05:15:25;;;;;;;;;42.75;32.50;;;;;9.48;79.20;101017.91;146609;586;46012;-70
2024/03/07 05:18:37;;;;;;;;;54.25;42.00;;;;;9.58;77.95;101026.25;146612;592;47010;-69
2024/03/07 05:21:41;;;;;;;;;57.25;43.75;;;;;9.60;78.08;101033.31;146609;690;46016;-70
2024/03/07 05:24:36;;;;;;;;;62.25;47.50;;;;;9.58;77.99;101036.59;146611;600;46012;-70
2024/03/07 05:27:30;;;;;;;;;61.75;46.25;;;;;8.87;79.25;100878.78;146610;567;47012;-70
2024/03/07 05:30:49;;;;;;;;;58.25;44.50;;;;;10.51;80.22;101044.66;146613;569;46010;-70
2024/03/07 05:33:42;;;;;;;;;40.75;34.00;;;;;11.30;79.98;101055.03;146610;592;47012;-69
2024/03/07 05:36:45;;;;;;;;;55.75;43.50;;;;;11.93;76.06;101047.94;146613;628;46020;-70
2024/03/07 05:39:40;;;;;;;;;53.50;41.00;;;;;12.66;74.76;101053.31;146608;602;47910;-70
2024/03/07 05:42:43;;;;;;;;;25.25;20.25;;;;;12.99;67.62;101040.09;146613;656;46021;-70
2024/03/07 05:46:11;;;;;;;;;;;;;;;;;;;;;
2024/03/07 05:49:03;;;;;;;;;31.00;25.75;;;;;13.37;68.31;101044.50;146613;583;46012;-71
2024/03/07 05:52:20;;;;;;;;;23.75;21.75;;;;;13.69;67.26;101038.09;146608;581;47012;-71
2024/03/07 05:55:18;;;;;;;;;20.50;18.75;;;;;14.02;67.02;101033.44;146613;577;46020;-71
2024/03/07 05:58:13;;;;;;;;;12.75;10.50;;;;;14.55;65.80;101024.34;146609;571;46017;-70
2024/03/07 06:01:18;;;;;;;;;28.75;23.75;;;;;14.96;63.49;101022.47;146614;653;46020;-70
2024/03/07 06:04:13;;;;;;;;;35.75;31.25;;;;;15.33;65.06;101023.84;146612;586;46017;-70
2024/03/07 06:07:21;;;;;;;;;;;;;;;;;;;;;
2024/03/07 06:10:29;;;;;;;;;66.25;51.50;;;;;16.25;58.88;101040.13;146612;650;46012;-72
2024/03/07 06:13:35;;;;;;;;;65.00;50.00;;;;;16.21;58.86;101045.22;146614;589;46021;-72
2024/03/07 06:16:35;;;;;;;;;68.00;51.50;;;;;16.05;59.41;101043.81;146615;598;47012;-71
2024/03/07 06:19:30;;;;;;;;;70.00;54.75;;;;;15.98;59.41;101052.28;146613;571;47021;-72
2024/03/07 06:22:24;;;;;;;;;70.50;55.75;;;;;15.84;59.71;101042.25;146610;628;47016;-73
2024/03/07 06:25:36;;;;;;;;;79.75;69.50;;;;;15.72;60.28;101051.38;146616;628;46010;-73
2024/03/07 06:28:40;;;;;;;;;71.75;60.50;;;;;15.60;59.91;101047.44;146613;614;47012;-71
2024/03/07 06:31:53;;;;;;;;;75.50;60.75;;;;;15.50;61.38;101052.31;146616;622;46020;-71
2024/03/07 06:34:53;;;;;;;;;69.25;49.75;;;;;15.42;61.82;101054.63;146611;697;46034;-70
2024/03/07 06:38:11;;;;;;;;;59.25;46.75;;;;;15.34;62.18;101059.56;146613;668;47010;-69
2024/03/07 06:41:10;;;;;;;;;56.25;44.50;;;;;15.25;62.59;101069.69;146608;606;47016;-70
2024/03/07 06:44:29;;;;;;;;;73.00;56.75;;;;;13.51;63.54;100761.16;146613;569;46020;-70
2024/03/07 06:47:12;;;;;;;;;87.33;80.67;;;;;15.35;63.17;101066.56;146710;565;46012;-74
2024/03/07 06:50:14;;;;;;;;;72.75;62.25;;;;;15.54;62.82;101065.53;146614;614;46016;-71
2024/03/07 06:53:11;;;;;;;;;62.25;48.50;;;;;15.75;62.92;101067.19;146617;658;47012;-71
2024/03/07 06:56:26;;;;;;;;;60.00;44.00;;;;;15.99;63.31;101061.94;146616;628;46017;-72
2024/03/07 06:59:32;;;;;;;;;33.75;29.00;;;;;16.16;61.45;101061.66;146619;616;46010;-71
2024/03/07 07:02:43;;;;;;;;;29.25;25.50;;;;;16.27;61.21;101055.91;146615;608;46016;-70
2024/03/07 07:06:00;;;;;;;;;32.25;27.00;;;;;16.40;60.46;101051.13;146620;596;46020;-71
2024/03/07 07:08:52;;;;;;;;;28.00;26.00;;;;;16.57;60.15;101054.28;146614;594;47012;-69
2024/03/07 07:11:45;;;;;;;;;26.00;22.00;;;;;16.73;59.85;101055.66;146620;660;46021;-68
2024/03/07 07:14:44;;;;;;;;;25.00;21.50;;;;;16.36;59.95;100981.19;146614;620;47016;-71
2024/03/07 07:17:41;;;;;;;;;25.25;21.25;;;;;17.04;59.37;101060.16;146619;596;47011;-73
2024/03/07 07:20:38;;;;;;;;;23.25;19.00;;;;;17.15;58.55;101059.56;146615;578;47012;-72
2024/03/07 07:23:49;;;;;;;;;15.75;14.50;;;;;17.28;59.47;101065.22;146618;602;46013;-72
2024/03/07 07:26:44;;;;;;;;;19.00;17.50;;;;;17.45;58.09;101057.84;146618;580;46012;-76
2024/03/07 07:29:41;;;;;;;;;23.50;19.50;;;;;17.60;58.65;101053.87;146617;564;46020;-72
2024/03/07 07:32:42;;;;;;;;;23.00;20.00;;;;;17.73;58.91;101066.50;146613;603;47036;-73
2024/03/07 07:35:37;;;;;;;;;18.25;16.25;;;;;17.81;58.29;101072.84;146622;677;47028;-73
2024/03/07 07:38:30;;;;;;;;;44.25;36.75;;;;;17.93;58.64;101067.94;146609;617;47914;-73
2024/03/07 07:41:28;;;;;;;;;26.75;23.75;;;;;18.05;57.48;101063.87;146621;573;46010;-73
2024/03/07 07:44:31;;;;;;;;;35.25;31.75;;;;;18.13;57.79;101051.81;146613;618;47014;-73
2024/03/07 07:47:23;;;;;;;;;37.25;32.00;;;;;18.20;56.86;101054.66;146634;564;47011;-73
2024/03/07 07:50:34;;;;;;;;;36.50;32.25;;;;;18.33;57.92;101058.47;146632;589;45035;-73
2024/03/07 07:53:35;;;;;;;;;35.25;31.50;;;;;18.42;55.91;101042.06;146633;627;46010;-73
2024/03/07 07:56:31;;;;;;;;;35.75;29.00;;;;;18.57;55.40;101054.69;146631;575;45016;-73
2024/03/07 07:59:29;;;;;;;;;32.75;30.25;;;;;18.69;56.40;101060.19;146638;735;45010;-70
2024/03/07 08:02:28;;;;;;;;;29.50;25.50;;;;;18.86;55.78;101058.03;146626;604;46013;-73
2024/03/07 08:05:43;;;;;;;;;22.75;20.50;;;;;19.06;54.82;101059.34;146633;569;46010;-72
2024/03/07 08:08:28;;;;;;;;;56.50;44.50;;;;;19.18;52.47;101056.09;146707;564;46012;-72
2024/03/07 08:11:24;;;;;;;;;37.75;31.50;;;;;19.31;51.96;101057.25;146617;602;47012;-72
2024/03/07 08:14:28;;;;;;;;;40.00;34.50;;;;;19.44;53.69;101051.41;146619;663;46020;-71
2024/03/07 08:17:27;;;;;;;;;30.50;28.00;;;;;19.61;53.06;101056.97;146611;589;47012;-72
2024/03/07 08:20:25;;;;;;;;;28.50;24.50;;;;;19.73;51.09;101059.00;146613;588;47010;-72
2024/03/07 08:23:34;;;;;;;;;31.00;26.75;;;;;19.82;52.29;101049.53;146613;598;46037;-73
2024/03/07 08:26:34;;;;;;;;;24.75;19.50;;;;;19.93;49.28;101051.47;146616;700;46021;-74
2024/03/07 08:29:29;;;;;;;;;28.75;26.25;;;;;19.96;50.04;101047.16;146608;564;47012;-71
2024/03/07 08:32:40;;;;;;;;;;;;;;;;;;;;;
2024/03/07 08:35:35;;;;;;;;;19.50;16.25;;;;;19.79;46.71;101036.31;146609;669;46913;-72
2024/03/07 08:38:37;;;;;;;;;29.75;22.75;;;;;19.75;49.66;101034.50;146618;588;46020;-73
2024/03/07 08:41:41;;;;;;;;;;;;;;;;;;;;;
2024/03/07 08:44:34;;;;;;;;;31.50;27.00;;;;;19.73;49.36;101035.31;146615;571;46021;-75
2024/03/07 08:47:31;;;;;;;;;30.50;26.25;;;;;19.70;52.21;101033.50;146610;629;46016;-73
2024/03/07 08:50:34;;;;;;;;;23.75;21.25;;;;;19.71;52.29;101031.75;146615;579;47011;-72
2024/03/07 08:53:47;;;;;;;;;22.00;19.50;;;;;19.77;51.14;101035.41;146608;581;46016;-74
2024/03/07 08:56:47;;;;;;;;;23.25;20.50;;;;;19.74;54.56;101035.34;146614;583;47010;-73
2024/03/07 08:59:44;;;;;;;;;19.50;16.50;;;;;18.66;54.48;100881.53;146613;705;46016;-74
2024/03/07 09:02:53;;;;;;;;;17.00;15.75;;;;;18.55;56.34;100885.69;146614;564;47010;-75
2024/03/07 09:06:05;;;;;;;;;16.00;14.25;;;;;19.33;57.13;101031.88;146611;628;46026;-75
2024/03/07 09:09:08;;;;;;;;;18.50;17.00;;;;;19.35;54.53;101038.94;146636;677;45010;-73
2024/03/07 09:12:08;;;;;;;;;20.50;14.50;;;;;19.43;56.67;101035.56;146632;564;46012;-73
2024/03/07 09:15:21;;;;;;;;;14.50;13.50;;;;;19.56;54.33;101034.94;146636;569;45020;-75
2024/03/07 09:18:13;;;;;;;;;17.25;15.25;;;;;18.83;52.24;100914.34;146631;593;45035;-73
2024/03/07 09:21:11;;;;;;;;;15.75;13.50;;;;;19.47;51.70;101025.16;146633;640;46010;-73
2024/03/07 09:24:15;;;;;;;;;15.00;13.25;;;;;19.41;51.49;101022.41;146632;633;46012;-74
2024/03/07 09:27:11;;;;;;;;;15.50;13.00;;;;;19.45;52.42;101026.87;146635;647;45029;-75
2024/03/07 09:30:13;;;;;;;;;15.75;13.25;;;;;19.66;52.39;101017.63;146631;588;45912;-73
2024/03/07 09:33:19;;;;;;;;;13.67;13.00;;;;;19.89;55.62;101020.69;146635;656;45010;-74
2024/03/07 09:36:29;;;;;;;;;15.75;13.50;;;;;20.04;54.77;101020.97;146630;589;46017;-73
2024/03/07 09:39:32;;;;;;;;;27.25;26.00;;;;;20.11;55.88;101027.22;146637;640;45010;-75
2024/03/07 09:42:44;;;;;;;;;15.00;15.00;;;;;20.05;56.01;101023.63;146631;668;46911;-74
2024/03/07 09:45:40;;;;;;;;;20.50;16.25;;;;;19.92;53.87;101034.78;146631;667;46020;-74
2024/03/07 09:48:39;;;;;;;;;14.50;12.00;;;;;19.75;52.37;101030.97;146633;657;45016;-74
2024/03/07 09:51:34;;;;;;;;;20.75;17.50;;;;;19.55;54.78;101030.56;146631;620;46021;-72
2024/03/07 09:54:39;;;;;;;;;12.33;11.00;;;;;19.43;54.55;101025.94;146633;589;46016;-73
2024/03/07 09:57:42;;;;;;;;;11.67;10.33;;;;;19.09;54.73;101009.47;146638;617;45011;-71
2024/03/07 10:00:42;;;;;;;;;16.33;15.67;;;;;18.81;55.56;101012.34;146635;679;45035;-68
2024/03/07 10:03:39;;;;;;;;;14.33;11.00;;;;;18.64;57.39;101015.47;146631;597;45021;-72
2024/03/07 10:06:41;;;;;;;;;14.00;12.75;;;;;18.64;57.14;101019.84;146625;599;46014;-72
2024/03/07 10:09:47;;;;;;;;;11.67;9.67;;;;;18.74;53.09;101007.81;146607;609;46034;-71
2024/03/07 10:12:52;;;;;;;;;13.25;11.00;;;;;18.88;53.68;101003.78;146609;574;47016;-73
2024/03/07 10:15:44;;;;;;;;;14.50;13.00;;;;;18.90;53.21;101002.06;146610;632;46010;-72
2024/03/07 10:18:37;;;;;;;;;12.33;11.00;;;;;18.98;53.85;100999.59;146606;617;46032;-73
2024/03/07 10:21:48;;;;;;;;;13.25;13.00;;;;;19.17;50.93;100996.50;146603;564;49010;-72
2024/03/07 10:24:46;;;;;;;;;11.67;10.67;;;;;19.39;47.24;100992.56;146603;580;47012;-73
2024/03/07 10:27:45;;;;;;;;;15.00;14.00;;;;;19.58;48.35;100984.16;146606;603;47010;-73
2024/03/07 10:30:50;;;;;;;;;11.00;8.33;;;;;19.83;48.00;100977.62;146607;598;46017;-73
2024/03/07 10:33:48;;;;;;;;;9.33;8.33;;;;;20.03;46.58;100964.81;146615;582;46021;-74
2024/03/07 10:36:43;;;;;;;;;8.67;7.67;;;;;20.26;45.98;100959.03;146612;629;46014;-73
2024/03/07 10:39:43;;;;;;;;;9.67;8.67;;;;;20.43;45.19;100961.91;146618;563;46010;-73
2024/03/07 10:42:56;;;;;;;;;5.33;5.00;;;;;20.46;43.62;100959.31;146607;588;47017;-72
2024/03/07 10:46:17;;;;;;;;;3.33;2.00;;;;;20.47;49.58;100951.44;146616;563;47010;-72
2024/03/07 10:49:35;;;;;;;;;;;;;;;;;;;;;
2024/03/07 10:53:00;;;;;;;;;13.67;13.67;;;;;20.33;52.51;100960.00;146615;611;46020;-75
2024/03/07 10:56:43;;;;;;;;;25.75;21.75;;;;;19.66;54.35;100917.66;146605;613;46017;-73
2024/03/07 10:59:42;;;;;;;;;28.50;25.75;;;;;19.46;54.59;100946.22;146609;607;46020;-72
2024/03/07 11:02:50;;;;;;;;;15.75;13.50;;;;;19.31;54.69;100942.44;146604;687;46913;-75
2024/03/07 11:05:55;;;;;;;;;16.50;15.50;;;;;19.11;55.69;100936.81;146606;654;46030;-74
2024/03/07 11:09:10;;;;;;;;;19.75;17.25;;;;;18.90;56.42;100944.25;146630;580;46014;-73
2024/03/07 11:12:28;;;;;;;;;15.00;13.00;;;;;18.73;56.86;100930.78;146635;574;45010;-73
2024/03/07 11:15:27;;;;;;;;;19.50;17.25;;;;;18.66;57.16;100932.34;146631;570;46012;-72
2024/03/07 11:18:24;;;;;;;;;12.50;9.75;;;;;18.60;55.90;100928.72;146633;599;46010;-74
2024/03/07 11:21:44;;;;;;;;;13.25;12.25;;;;;18.45;56.48;100924.00;146639;579;45012;-72
2024/03/07 11:24:42;;;;;;;;;13.00;13.00;;;;;18.37;56.45;100922.91;146635;629;45021;-75
2024/03/07 11:27:55;;;;;;;;;15.75;13.00;;;;;18.34;56.67;100928.09;146630;645;45017;-78
2024/03/07 11:31:33;;;;;;;;;17.50;13.25;;;;;18.29;56.24;100933.25;146633;680;45029;-74
2024/03/07 11:34:45;;;;;;;;;10.75;10.75;;;;;18.23;56.44;100915.63;146629;613;45033;-75
2024/03/07 11:37:54;;;;;;;;;16.75;16.00;;;;;18.33;55.59;100916.72;146634;672;46010;-77
2024/03/07 11:41:00;;;;;;;;;18.75;17.50;;;;;18.39;54.15;100915.97;146633;611;45017;-76
2024/03/07 11:44:11;;;;;;;;;8.00;8.00;;;;;18.35;53.20;100911.50;146638;598;45020;-75
2024/03/07 11:47:16;;;;;;;;;11.00;11.00;;;;;18.31;55.36;100914.91;146637;633;46017;-75
2024/03/07 11:50:21;;;;;;;;;12.75;12.00;;;;;18.35;55.73;100903.62;146635;602;45020;-75
2024/03/07 11:53:26;;;;;;;;;10.75;10.00;;;;;18.42;55.61;100897.66;146633;610;45911;-75
2024/03/07 11:56:26;;;;;;;;;20.00;16.50;;;;;18.49;54.93;100890.81;146637;565;45010;-79
2024/03/07 11:59:37;;;;;;;;;25.25;21.00;;;;;18.55;53.38;100888.31;146627;593;47016;-75
2024/03/07 12:02:48;;;;;;;;;22.50;19.00;;;;;18.64;53.33;100888.50;146635;610;45021;-74
2024/03/07 12:05:44;;;;;;;;;17.25;15.00;;;;;18.74;51.14;100889.62;146632;684;46037;-75
2024/03/07 12:08:51;;;;;;;;;17.00;14.50;;;;;18.84;51.43;100881.94;146634;569;45020;-76
2024/03/07 12:12:01;;;;;;;;;11.50;10.25;;;;;17.88;46.56;100711.91;146629;622;46013;-73
2024/03/07 12:14:55;;;;;;;;;11.00;9.00;;;;;18.73;47.49;100857.22;146636;640;45020;-76
2024/03/07 12:17:55;;;;;;;;;14.75;13.50;;;;;18.61;49.63;100867.44;146635;564;46016;-74
2024/03/07 12:21:08;;;;;;;;;17.00;15.75;;;;;18.58;52.23;100855.13;146635;565;45020;-76
2024/03/07 12:24:18;;;;;;;;;15.75;13.75;;;;;18.54;50.10;100852.41;146627;567;46016;-76
2024/03/07 12:27:16;;;;;;;;;10.00;10.00;;;;;18.42;48.82;100850.41;146637;702;45021;-76
2024/03/07 12:30:41;;;;;;;;;18.50;15.50;;;;;18.25;51.40;100852.66;146633;575;45016;-77
2024/03/07 12:33:42;;;;;;;;;16.50;16.25;;;;;18.15;50.09;100856.81;146635;619;45029;-71
2024/03/07 12:36:45;;;;;;;;;16.25;15.75;;;;;18.15;51.46;100842.81;146631;563;45016;-73
2024/03/07 12:40:00;;;;;;;;;10.25;10.25;;;;;18.21;51.17;100845.56;146633;566;46011;-76
2024/03/07 12:42:56;;;;;;;;;21.00;19.75;;;;;18.16;47.72;100841.94;146632;623;45016;-74
2024/03/07 12:45:54;;;;;;;;;20.00;18.25;;;;;18.16;50.37;100850.75;146635;600;45020;-76
2024/03/07 12:49:03;;;;;;;;;11.33;9.00;;;;;18.12;50.52;100854.13;146630;606;47930;-76
2024/03/07 12:52:02;;;;;;;;;10.00;9.00;;;;;18.10;48.61;100845.34;146642;715;45020;-76
2024/03/07 12:55:06;;;;;;;;;13.50;12.50;;;;;18.02;47.51;100838.16;146634;566;46010;-77
2024/03/07 12:58:02;;;;;;;;;14.50;11.00;;;;;17.88;46.73;100841.34;146631;639;46020;-76
2024/03/07 13:01:18;;;;;;;;;10.50;9.75;;;;;17.72;48.68;100836.53;146629;568;46012;-75
2024/03/07 13:04:30;;;;;;;;;11.00;8.75;;;;;17.57;47.66;100839.69;146643;574;45021;-76
2024/03/07 13:07:32;;;;;;;;;12.50;11.50;;;;;17.49;47.82;100826.38;146622;620;46016;-77
2024/03/07 13:10:45;;;;;;;;;10.75;10.75;;;;;17.49;46.81;100822.88;146608;578;46020;-79
2024/03/07 13:13:51;;;;;;;;;11.25;11.25;;;;;17.56;49.17;100816.94;146604;622;46014;-81
2024/03/07 13:17:09;;;;;;;;;10.75;7.50;;;;;17.48;46.51;100816.75;146608;584;46021;-78
2024/03/07 13:20:11;;;;;;;;;29.50;24.75;;;;;17.40;45.87;100807.81;146608;626;47014;-70
2024/03/07 13:23:08;;;;;;;;;9.67;9.67;;;;;17.40;47.39;100810.44;146609;633;47020;-89
2024/03/07 13:26:01;;;;;;;;;8.75;8.75;;;;;17.37;47.75;100807.72;146610;586;46012;-83
2024/03/07 13:29:01;;;;;;;;;11.00;10.00;;;;;17.45;46.99;100823.66;146603;588;46020;-82
2024/03/07 13:32:14;;;;;;;;;9.00;9.00;;;;;17.46;49.00;100810.56;146605;613;47012;-83
2024/03/07 13:35:17;;;;;;;;;9.67;8.33;;;;;17.49;47.13;100813.28;146615;573;47012;-78
2024/03/07 13:38:10;;;;;;;;;8.00;7.00;;;;;17.51;46.42;100801.09;146710;566;45034;-88
2024/03/07 13:41:11;;;;;;;;;11.25;6.75;;;;;17.57;47.22;100799.44;146625;572;46012;-68
2024/03/07 13:44:05;;;;;;;;;8.33;6.33;;;;;17.55;46.56;100795.06;146627;590;46010;-88
2024/03/07 13:46:59;;;;;;;;;9.00;9.00;;;;;17.63;46.73;100795.28;146617;657;46016;-88
2024/03/07 13:49:52;;;;;;;;;9.67;8.67;;;;;17.64;46.83;100798.78;146620;683;47033;-87
2024/03/07 13:57:07;;;;;;;;;;;;;;;;;;;;;
2024/03/07 14:00:53;;;;;;;;;10.00;8.00;;;;;17.55;51.91;100815.16;146619;579;46016;-85
2024/03/07 14:04:44;;;;;;;;;9.00;7.67;;;;;17.13;49.74;100755.59;146621;646;47010;-88
2024/03/07 14:08:03;;;;;;;;;27.75;26.00;;;;;17.38;50.91;100813.84;146615;607;47016;-87
2024/03/07 14:11:36;;;;;;;;;12.25;11.50;;;;;17.31;51.68;100815.44;146618;593;47008;-87